Time;durP1;ratioP1;P1;durP2;ratioP2;P2;SDS_P1;SDS_P2;PMS_P1;PMS_P2;Temp;Humidity;BMP_temperature;BMP_pressure;BME280_temperature;BME280_humidity;BME280_pressure;Samples;Min_cycle;Max_cycle;Signal;HPM_P1;HPM_P2
2023/06/03 00:00:05;;;;;;;0.00;0.00;;;11.50;99.90;;;;;;5027267;28;20045;-65
2023/06/03 00:02:31;;;;;;;0.10;0.10;;;11.50;99.90;;;;;;5033438;28;20080;-65
2023/06/03 00:05:00;;;;;;;0.08;0.08;;;11.50;99.90;;;;;;5065786;28;20103;-65
2023/06/03 00:07:26;;;;;;;0.00;0.00;;;11.50;99.90;;;;;;5070389;28;20518;-65
2023/06/03 00:09:52;;;;;;;0.00;0.00;;;11.50;99.90;;;;;;5054412;28;20033;-65
2023/06/03 00:12:17;;;;;;;0.00;0.00;;;11.40;99.90;;;;;;5044073;28;20083;-65
2023/06/03 00:14:43;;;;;;;2.10;0.30;;;11.40;99.90;;;;;;5060101;28;20044;-64
2023/06/03 00:17:11;;;;;;;0.65;0.63;;;11.40;99.90;;;;;;5046049;28;20458;-65
2023/06/03 00:19:39;;;;;;;0.00;0.00;;;11.40;99.90;;;;;;5043351;28;20043;-65
2023/06/03 00:22:06;;;;;;;0.00;0.00;;;11.30;99.90;;;;;;5047565;28;20048;-65
2023/06/03 00:24:32;;;;;;;0.10;0.10;;;11.30;99.90;;;;;;5046389;28;20041;-65
2023/06/03 00:26:58;;;;;;;0.63;0.10;;;11.20;99.90;;;;;;5046464;28;20036;-65
2023/06/03 00:29:24;;;;;;;0.13;0.13;;;11.20;99.90;;;;;;5075067;28;20087;-65
2023/06/03 00:31:50;;;;;;;0.20;0.10;;;11.20;99.90;;;;;;5042084;28;20630;-65
2023/06/03 00:34:16;;;;;;;0.00;0.00;;;11.20;99.90;;;;;;5075220;28;20162;-64
2023/06/03 00:36:42;;;;;;;0.00;0.00;;;11.10;99.90;;;;;;5043955;28;20509;-65
2023/06/03 00:39:08;;;;;;;0.10;0.10;;;11.10;99.90;;;;;;5042800;28;20071;-65
2023/06/03 00:41:34;;;;;;;0.00;0.00;;;11.10;99.90;;;;;;5044884;28;20056;-64
2023/06/03 00:44:00;;;;;;;0.32;0.32;;;11.10;99.90;;;;;;5044833;28;20567;-65
2023/06/03 00:46:27;;;;;;;0.00;0.00;;;11.10;99.90;;;;;;5074217;28;20040;-65
2023/06/03 00:48:53;;;;;;;0.00;0.00;;;11.10;99.90;;;;;;5043181;28;20044;-65
2023/06/03 00:51:19;;;;;;;0.30;0.30;;;11.00;99.90;;;;;;5043295;28;20033;-65
2023/06/03 00:53:45;;;;;;;0.00;0.00;;;11.00;99.90;;;;;;5042514;28;20380;-64
2023/06/03 00:56:13;;;;;;;0.10;0.10;;;11.00;99.90;;;;;;5045659;28;20142;-64
2023/06/03 00:58:39;;;;;;;0.00;0.00;;;11.00;99.90;;;;;;5041665;28;20396;-65
2023/06/03 01:01:05;;;;;;;0.52;0.40;;;10.90;99.90;;;;;;5046495;28;20037;-65
2023/06/03 01:03:31;;;;;;;0.05;0.03;;;10.90;99.90;;;;;;5070056;28;20080;-65
2023/06/03 01:06:14;;;;;;;0.00;0.00;;;10.90;99.90;;;;;;5045881;28;20526;-64
2023/06/03 01:09:02;;;;;;;0.00;0.00;;;10.90;99.90;;;;;;5038551;28;20049;-65
2023/06/03 01:12:00;;;;;;;0.00;0.00;;;10.80;99.90;;;;;;5042085;28;20041;-65
2023/06/03 01:14:29;;;;;;;0.10;0.10;;;10.80;99.90;;;;;;5077129;28;20045;-65
2023/06/03 01:16:57;;;;;;;0.00;0.00;;;10.80;99.90;;;;;;5041630;28;20080;-65
2023/06/03 01:19:49;;;;;;;0.00;0.00;;;10.80;99.90;;;;;;5043238;28;20515;-65
2023/06/03 01:22:26;;;;;;;0.00;0.00;;;10.80;99.90;;;;;;5076697;28;20163;-65
2023/06/03 01:25:12;;;;;;;0.00;0.00;;;10.70;99.90;;;;;;5043273;28;20094;-65
2023/06/03 01:27:39;;;;;;;0.00;0.00;;;10.70;99.90;;;;;;5041570;28;20037;-65
2023/06/03 01:30:13;;;;;;;0.00;0.00;;;10.70;99.90;;;;;;5043809;28;20074;-65
2023/06/03 01:32:44;;;;;;;0.00;0.00;;;10.70;99.90;;;;;;5043469;28;20060;-65
2023/06/03 01:35:11;;;;;;;0.20;0.10;;;10.60;99.90;;;;;;5043953;28;20040;-65
2023/06/03 01:37:39;;;;;;;0.20;0.10;;;10.60;99.90;;;;;;5074360;28;20090;-66
2023/06/03 01:40:10;;;;;;;0.10;0.10;;;10.60;99.90;;;;;;5044037;28;20037;-65
2023/06/03 01:42:37;;;;;;;0.00;0.00;;;10.60;99.90;;;;;;5042684;28;20492;-65
2023/06/03 01:45:03;;;;;;;0.00;0.00;;;10.50;99.90;;;;;;5041805;28;20094;-65
2023/06/03 01:47:30;;;;;;;0.00;0.00;;;10.50;99.90;;;;;;5045174;28;20033;-65
2023/06/03 01:49:55;;;;;;;0.38;0.10;;;10.50;99.90;;;;;;5075360;28;20043;-65
2023/06/03 01:52:21;;;;;;;0.25;0.00;;;10.40;99.90;;;;;;5075855;28;20029;-66
2023/06/03 01:54:47;;;;;;;0.20;0.20;;;10.40;99.90;;;;;;5040905;28;20040;-66
2023/06/03 01:57:12;;;;;;;0.00;0.00;;;10.30;99.90;;;;;;5039705;28;20041;-65
2023/06/03 01:59:38;;;;;;;0.20;0.10;;;10.30;99.90;;;;;;5055802;28;20080;-66
2023/06/03 02:02:04;;;;;;;0.30;0.00;;;10.30;99.90;;;;;;5042116;28;20040;-65
2023/06/03 02:04:30;;;;;;;0.08;0.08;;;10.20;99.90;;;;;;5079289;28;20041;-65
2023/06/03 02:07:00;;;;;;;0.00;0.00;;;10.20;99.90;;;;;;5044160;28;20056;-65
2023/06/03 02:09:27;;;;;;;0.20;0.10;;;10.10;99.90;;;;;;5039710;28;20120;-65
2023/06/03 02:11:57;;;;;;;0.03;0.03;;;10.00;99.90;;;;;;5043730;28;20044;-65
2023/06/03 02:14:26;;;;;;;0.00;0.00;;;9.90;99.90;;;;;;5070544;28;20445;-65
2023/06/03 02:16:53;;;;;;;0.30;0.20;;;9.80;99.90;;;;;;5043616;28;20353;-66
2023/06/03 02:19:20;;;;;;;0.00;0.00;;;9.80;99.90;;;;;;5042119;28;20102;-65
2023/06/03 02:21:47;;;;;;;0.00;0.00;;;9.80;99.90;;;;;;5070913;28;20037;-65
2023/06/03 02:24:16;;;;;;;0.32;0.13;;;9.80;99.90;;;;;;5071226;28;20048;-65
2023/06/03 02:26:50;;;;;;;0.00;0.00;;;9.80;99.90;;;;;;5075478;28;20075;-65
2023/06/03 02:29:20;;;;;;;0.00;0.00;;;9.70;99.90;;;;;;5038546;28;20037;-65
2023/06/03 02:31:50;;;;;;;0.10;0.10;;;9.70;99.90;;;;;;5042002;28;20041;-65
2023/06/03 02:34:16;;;;;;;0.10;0.10;;;9.70;99.90;;;;;;5068517;28;20451;-65
2023/06/03 02:36:43;;;;;;;0.47;0.20;;;9.70;99.90;;;;;;5058272;28;20765;-65
2023/06/03 02:39:10;;;;;;;0.00;0.00;;;9.70;99.90;;;;;;5037987;28;20118;-65
2023/06/03 02:41:36;;;;;;;0.00;0.00;;;9.70;99.90;;;;;;5044337;28;20029;-65
2023/06/03 02:44:03;;;;;;;0.00;0.00;;;9.60;99.90;;;;;;5070442;28;20081;-65
2023/06/03 02:46:28;;;;;;;0.05;0.05;;;9.60;99.90;;;;;;5041584;28;20128;-65
2023/06/03 02:48:54;;;;;;;0.10;0.10;;;9.60;99.90;;;;;;5037160;28;20196;-65
2023/06/03 02:51:20;;;;;;;0.10;0.10;;;9.50;99.90;;;;;;5041396;28;20033;-65
2023/06/03 02:53:45;;;;;;;0.10;0.10;;;9.40;99.90;;;;;;5072934;28;20048;-65
2023/06/03 02:56:11;;;;;;;0.08;0.08;;;9.40;99.90;;;;;;5040965;28;20041;-65
2023/06/03 02:58:37;;;;;;;0.30;0.08;;;9.30;99.90;;;;;;5043258;28;20039;-65
2023/06/03 03:01:02;;;;;;;0.00;0.00;;;9.20;99.90;;;;;;5042574;28;20159;-65
2023/06/03 03:03:28;;;;;;;0.00;0.00;;;9.10;99.90;;;;;;5039786;28;20044;-65
2023/06/03 03:05:54;;;;;;;0.00;0.00;;;9.10;99.90;;;;;;5073328;28;20388;-65
2023/06/03 03:08:22;;;;;;;0.28;0.10;;;9.10;99.90;;;;;;5074841;28;20036;-65
2023/06/03 03:10:48;;;;;;;0.00;0.00;;;9.10;99.90;;;;;;5045361;28;20048;-65
2023/06/03 03:13:14;;;;;;;0.05;0.05;;;9.10;99.90;;;;;;5039070;28;20394;-65
2023/06/03 03:15:40;;;;;;;0.00;0.00;;;9.10;99.90;;;;;;5059909;28;20515;-65
2023/06/03 03:18:06;;;;;;;0.22;0.00;;;9.10;99.90;;;;;;5036759;28;20044;-65
2023/06/03 03:20:31;;;;;;;0.00;0.00;;;9.10;99.90;;;;;;5043393;28;20389;-65
2023/06/03 03:22:58;;;;;;;0.08;0.08;;;9.10;99.90;;;;;;5054743;28;20060;-65
2023/06/03 03:25:23;;;;;;;0.08;0.08;;;9.20;99.90;;;;;;5074358;28;20041;-65
2023/06/03 03:27:49;;;;;;;1.88;0.30;;;9.10;99.90;;;;;;5074048;28;20052;-65
2023/06/03 03:30:16;;;;;;;0.00;0.00;;;9.10;99.90;;;;;;5044216;28;20041;-65
2023/06/03 03:32:41;;;;;;;0.00;0.00;;;9.10;99.90;;;;;;5041887;28;20361;-65
2023/06/03 03:35:16;;;;;;;0.30;0.13;;;9.10;99.90;;;;;;5046211;28;20036;-64
2023/06/03 03:37:43;;;;;;;0.00;0.00;;;9.10;99.90;;;;;;5039103;28;20550;-65
2023/06/03 03:40:21;;;;;;;0.00;0.00;;;9.10;99.90;;;;;;5043833;28;20041;-64
2023/06/03 03:42:49;;;;;;;0.00;0.00;;;9.10;99.90;;;;;;5037078;28;20097;-65
2023/06/03 03:45:17;;;;;;;0.00;0.00;;;9.10;99.90;;;;;;5043543;28;20098;-65
2023/06/03 03:47:43;;;;;;;0.00;0.00;;;9.10;99.90;;;;;;5034902;28;20079;-65
2023/06/03 03:50:36;;;;;;;1.15;0.20;;;9.10;99.90;;;;;;5043083;28;20033;-65
2023/06/03 03:53:05;;;;;;;0.20;0.20;;;9.10;99.90;;;;;;5041833;28;20043;-65
2023/06/03 03:55:31;;;;;;;0.00;0.00;;;9.10;99.90;;;;;;5044173;28;20059;-65
2023/06/03 03:58:01;;;;;;;0.00;0.00;;;9.10;99.90;;;;;;5071929;28;20697;-65
2023/06/03 04:00:28;;;;;;;0.00;0.00;;;9.10;99.90;;;;;;5041090;28;20102;-65
2023/06/03 04:02:53;;;;;;;0.00;0.00;;;9.10;99.90;;;;;;5040983;28;20080;-64
2023/06/03 04:05:22;;;;;;;0.10;0.10;;;9.20;99.90;;;;;;5041916;28;20037;-65
2023/06/03 04:07:49;;;;;;;0.00;0.00;;;9.20;99.90;;;;;;5072384;28;20045;-65
2023/06/03 04:10:15;;;;;;;0.00;0.00;;;9.20;99.90;;;;;;5071419;28;20087;-65
2023/06/03 04:12:40;;;;;;;0.00;0.00;;;9.20;99.90;;;;;;5037349;28;20051;-65
2023/06/03 04:15:06;;;;;;;0.03;0.03;;;9.20;99.90;;;;;;5045016;28;20072;-66
2023/06/03 04:17:36;;;;;;;0.13;0.13;;;9.20;99.90;;;;;;5068791;28;20115;-65
2023/06/03 04:20:05;;;;;;;0.00;0.00;;;9.30;99.90;;;;;;5039203;28;20127;-65
2023/06/03 04:22:32;;;;;;;0.00;0.00;;;9.30;99.90;;;;;;5040647;28;20037;-65
2023/06/03 04:25:07;;;;;;;0.00;0.00;;;9.40;99.90;;;;;;5043681;28;20120;-65
2023/06/03 04:27:32;;;;;;;0.22;0.22;;;9.40;99.90;;;;;;5038653;28;20040;-65
2023/06/03 04:29:58;;;;;;;0.00;0.00;;;9.40;99.90;;;;;;5036322;28;20063;-65
2023/06/03 04:32:23;;;;;;;0.05;0.05;;;9.50;99.90;;;;;;5040680;28;20033;-65
2023/06/03 04:34:54;;;;;;;0.00;0.00;;;9.60;99.90;;;;;;5040229;28;20049;-65
2023/06/03 04:37:21;;;;;;;0.10;0.10;;;9.70;99.90;;;;;;5040700;28;20071;-65
2023/06/03 04:39:48;;;;;;;0.00;0.00;;;9.80;99.90;;;;;;5039519;28;20047;-66
2023/06/03 04:42:15;;;;;;;0.38;0.38;;;9.80;99.90;;;;;;5073612;28;20627;-64
2023/06/03 04:44:42;;;;;;;0.10;0.10;;;9.90;99.90;;;;;;5037812;28;20384;-65
2023/06/03 04:47:10;;;;;;;0.17;0.10;;;10.00;99.90;;;;;;5038351;28;21572;-65
2023/06/03 04:49:39;;;;;;;0.00;0.00;;;10.10;99.90;;;;;;5033369;28;20041;-65
2023/06/03 04:52:10;;;;;;;0.00;0.00;;;10.20;99.90;;;;;;5033740;28;20048;-64
2023/06/03 04:54:37;;;;;;;0.00;0.00;;;10.30;99.90;;;;;;5065281;28;20048;-65
2023/06/03 04:57:03;;;;;;;0.13;0.13;;;10.40;99.90;;;;;;5031776;28;20033;-65
2023/06/03 04:59:29;;;;;;;0.00;0.00;;;10.50;99.90;;;;;;5037483;28;20040;-66
2023/06/03 05:01:54;;;;;;;0.00;0.00;;;10.60;99.90;;;;;;5039175;28;20038;-66
2023/06/03 05:04:22;;;;;;;0.05;0.05;;;10.70;99.90;;;;;;5037936;28;20491;-65
2023/06/03 05:06:48;;;;;;;0.00;0.00;;;10.80;99.90;;;;;;5046353;28;20121;-66
2023/06/03 05:09:14;;;;;;;0.10;0.10;;;10.90;99.90;;;;;;5072767;28;20055;-65
2023/06/03 05:11:40;;;;;;;0.15;0.10;;;11.00;99.90;;;;;;5032980;28;20032;-65
2023/06/03 05:14:06;;;;;;;0.32;0.17;;;11.10;99.90;;;;;;5036971;28;20033;-66
2023/06/03 05:16:32;;;;;;;0.30;0.30;;;11.20;99.90;;;;;;5069910;28;20055;-66
2023/06/03 05:18:58;;;;;;;0.00;0.00;;;11.30;99.90;;;;;;5044581;28;20479;-65
2023/06/03 05:21:24;;;;;;;0.10;0.10;;;11.40;99.90;;;;;;5037383;28;20045;-65
2023/06/03 05:23:49;;;;;;;0.00;0.00;;;11.50;99.90;;;;;;5037358;28;20515;-65
2023/06/03 05:26:15;;;;;;;0.10;0.10;;;11.60;99.90;;;;;;5064224;28;20056;-66
2023/06/03 05:28:40;;;;;;;0.00;0.00;;;11.70;99.90;;;;;;5035405;28;20033;-65
2023/06/03 05:31:06;;;;;;;0.20;0.20;;;11.80;99.90;;;;;;5038178;28;20045;-65
2023/06/03 05:33:35;;;;;;;0.00;0.00;;;11.90;99.90;;;;;;5042239;28;20049;-65
2023/06/03 05:36:01;;;;;;;0.38;0.10;;;12.10;99.90;;;;;;5071493;28;20099;-65
2023/06/03 05:38:27;;;;;;;0.00;0.00;;;12.20;99.90;;;;;;5040358;28;20091;-65
2023/06/03 05:40:53;;;;;;;0.03;0.03;;;12.30;99.90;;;;;;5069182;28;20048;-66
2023/06/03 05:43:19;;;;;;;0.10;0.10;;;12.40;99.90;;;;;;5039736;28;20036;-66
2023/06/03 05:45:46;;;;;;;0.00;0.00;;;12.50;99.90;;;;;;5040659;28;20492;-66
2023/06/03 05:48:11;;;;;;;0.00;0.00;;;12.60;99.90;;;;;;5033531;28;20518;-65
2023/06/03 05:50:46;;;;;;;2.17;0.13;;;12.80;99.90;;;;;;5037255;28;20044;-66
2023/06/03 05:53:11;;;;;;;0.00;0.00;;;12.90;99.90;;;;;;5032191;28;20381;-65
2023/06/03 05:55:37;;;;;;;0.00;0.00;;;13.00;99.90;;;;;;5074105;28;20041;-65
2023/06/03 05:58:03;;;;;;;0.20;0.20;;;13.10;99.90;;;;;;5033696;28;20442;-66
2023/06/03 06:00:28;;;;;;;0.00;0.00;;;13.20;99.90;;;;;;5069921;28;20509;-65
2023/06/03 06:02:54;;;;;;;1.15;0.47;;;13.30;99.90;;;;;;5068877;28;20045;-65
2023/06/03 06:05:19;;;;;;;0.00;0.00;;;13.40;99.90;;;;;;5044420;28;20090;-65
2023/06/03 06:07:45;;;;;;;0.00;0.00;;;13.50;99.90;;;;;;5069516;28;20098;-65
2023/06/03 06:10:11;;;;;;;0.00;0.00;;;13.60;99.90;;;;;;5036266;28;20033;-66
2023/06/03 06:12:36;;;;;;;0.00;0.00;;;13.80;99.90;;;;;;5039639;28;20552;-65
2023/06/03 06:15:02;;;;;;;0.20;0.00;;;13.90;99.90;;;;;;5039072;28;21066;-65
2023/06/03 06:17:28;;;;;;;0.00;0.00;;;14.00;99.90;;;;;;5035786;28;20044;-65
2023/06/03 06:19:53;;;;;;;0.43;0.10;;;14.10;99.90;;;;;;5037156;28;20045;-66
2023/06/03 06:22:19;;;;;;;0.00;0.00;;;14.20;99.90;;;;;;5034640;28;20083;-65
2023/06/03 06:24:45;;;;;;;0.00;0.00;;;14.30;99.90;;;;;;5022792;28;20052;-65
2023/06/03 06:27:10;;;;;;;0.00;0.00;;;14.40;99.90;;;;;;5034266;28;20033;-65
2023/06/03 06:29:36;;;;;;;0.20;0.20;;;14.50;99.90;;;;;;5033674;28;20455;-66
2023/06/03 06:32:03;;;;;;;0.00;0.00;;;14.70;99.90;;;;;;5038788;28;20044;-65
2023/06/03 06:34:31;;;;;;;0.00;0.00;;;14.80;99.90;;;;;;5068056;28;20071;-66
2023/06/03 06:36:58;;;;;;;0.00;0.00;;;14.90;99.90;;;;;;5035299;28;20762;-66
2023/06/03 06:39:33;;;;;;;0.00;0.00;;;15.00;99.90;;;;;;5069898;28;20041;-65
2023/06/03 06:42:32;;;;;;;0.00;0.00;;;15.20;99.90;;;;;;5041186;28;20040;-66
2023/06/03 06:45:04;;;;;;;0.00;0.00;;;15.30;99.90;;;;;;5036295;28;20047;-66
2023/06/03 06:47:35;;;;;;;0.00;0.00;;;15.50;99.90;;;;;;5040398;28;20684;-67
2023/06/03 06:50:01;;;;;;;0.00;0.00;;;15.60;99.90;;;;;;5034141;28;20373;-67
2023/06/03 06:52:26;;;;;;;0.00;0.00;;;15.70;99.90;;;;;;5041345;28;20052;-66
2023/06/03 06:54:54;;;;;;;0.10;0.10;;;15.80;99.90;;;;;;5036932;28;20089;-66
2023/06/03 06:57:22;;;;;;;0.10;0.10;;;15.80;99.90;;;;;;5077867;28;20045;-65
2023/06/03 06:59:51;;;;;;;0.00;0.00;;;16.00;99.90;;;;;;5037197;28;20033;-66
2023/06/03 07:02:17;;;;;;;0.25;0.20;;;16.10;99.90;;;;;;5074141;28;20029;-65
2023/06/03 07:04:43;;;;;;;0.10;0.10;;;16.20;99.90;;;;;;5036857;28;20090;-66
2023/06/03 07:07:08;;;;;;;0.03;0.03;;;16.30;99.90;;;;;;5041530;28;20057;-66
2023/06/03 07:09:34;;;;;;;0.00;0.00;;;16.20;99.90;;;;;;5041461;28;20083;-67
2023/06/03 07:12:00;;;;;;;0.05;0.05;;;16.30;99.90;;;;;;5040286;28;20068;-66
2023/06/03 07:14:30;;;;;;;0.00;0.00;;;16.30;99.90;;;;;;5038795;28;20052;-67
2023/06/03 07:16:56;;;;;;;0.00;0.00;;;16.50;99.90;;;;;;5069652;28;20041;-66
2023/06/03 07:19:22;;;;;;;0.00;0.00;;;16.60;99.90;;;;;;5039191;28;20044;-65
2023/06/03 07:21:48;;;;;;;0.08;0.08;;;16.70;99.90;;;;;;5032844;28;20051;-66
2023/06/03 07:24:15;;;;;;;0.10;0.10;;;16.80;99.90;;;;;;5035414;28;20048;-66
2023/06/03 07:26:41;;;;;;;0.00;0.00;;;16.80;99.90;;;;;;5034853;28;20084;-67
2023/06/03 07:29:07;;;;;;;0.00;0.00;;;16.70;99.90;;;;;;5031448;28;20049;-67
2023/06/03 07:31:35;;;;;;;0.08;0.08;;;16.60;99.90;;;;;;5066666;28;20476;-66
2023/06/03 07:34:02;;;;;;;0.00;0.00;;;16.50;99.90;;;;;;5046863;28;20033;-66
2023/06/03 07:36:28;;;;;;;0.32;0.20;;;16.50;99.90;;;;;;5035815;28;20051;-66
2023/06/03 07:39:06;;;;;;;0.00;0.00;;;16.60;99.90;;;;;;5062193;28;20435;-68
2023/06/03 07:41:36;;;;;;;1.25;0.20;;;16.70;99.90;;;;;;5036181;28;20041;-66
2023/06/03 07:44:09;;;;;;;0.00;0.00;;;16.80;99.90;;;;;;5038342;28;20525;-66
2023/06/03 07:46:40;;;;;;;0.10;0.10;;;17.00;99.90;;;;;;5036486;28;20037;-66
2023/06/03 07:49:11;;;;;;;0.20;0.10;;;17.20;99.90;;;;;;5037144;28;20085;-66
2023/06/03 07:51:40;;;;;;;0.10;0.10;;;17.40;99.90;;;;;;5043920;28;20063;-65
2023/06/03 07:54:05;;;;;;;0.13;0.13;;;17.60;99.90;;;;;;5039734;28;20150;-66
2023/06/03 07:56:33;;;;;;;0.00;0.00;;;17.70;99.90;;;;;;5042811;28;20131;-65
2023/06/03 07:59:00;;;;;;;0.10;0.10;;;17.90;99.90;;;;;;5041752;28;20139;-65
2023/06/03 08:01:25;;;;;;;0.00;0.00;;;18.00;99.90;;;;;;5036833;28;20036;-65
2023/06/03 08:03:52;;;;;;;0.65;0.20;;;18.00;99.90;;;;;;5037353;28;20033;-66
2023/06/03 08:06:20;;;;;;;0.25;0.10;;;18.00;99.90;;;;;;5074322;28;20114;-66
2023/06/03 08:08:45;;;;;;;0.10;0.10;;;18.10;99.90;;;;;;5033563;28;20064;-66
2023/06/03 08:11:12;;;;;;;0.00;0.00;;;18.10;99.90;;;;;;5040297;28;20033;-66
2023/06/03 08:13:37;;;;;;;0.13;0.13;;;18.10;99.90;;;;;;5040578;28;20387;-66
2023/06/03 08:16:05;;;;;;;0.90;0.52;;;18.10;99.90;;;;;;5042075;28;20040;-65
2023/06/03 08:18:47;;;;;;;0.17;0.15;;;18.30;99.90;;;;;;5041604;28;20518;-66
2023/06/03 08:21:13;;;;;;;0.00;0.00;;;18.50;99.90;;;;;;5071477;28;20037;-66
2023/06/03 08:23:39;;;;;;;0.00;0.00;;;18.40;99.90;;;;;;5038443;28;20041;-66
2023/06/03 08:26:05;;;;;;;0.00;0.00;;;18.40;99.90;;;;;;5040621;28;20055;-65
2023/06/03 08:28:31;;;;;;;0.00;0.00;;;18.40;99.90;;;;;;5036365;28;20058;-65
2023/06/03 08:30:56;;;;;;;0.00;0.00;;;18.30;99.90;;;;;;5066560;28;20076;-66
2023/06/03 08:33:22;;;;;;;0.00;0.00;;;18.30;99.90;;;;;;5041635;28;20060;-66
2023/06/03 08:35:48;;;;;;;0.15;0.15;;;18.30;99.90;;;;;;5076366;28;20084;-67
2023/06/03 08:38:16;;;;;;;0.10;0.10;;;18.40;99.90;;;;;;5075012;28;20135;-66
2023/06/03 08:40:49;;;;;;;0.00;0.00;;;18.60;99.90;;;;;;5036334;28;20129;-65
2023/06/03 08:43:15;;;;;;;0.00;0.00;;;18.90;99.90;;;;;;5044964;28;20102;-66
2023/06/03 08:46:07;;;;;;;0.95;0.30;;;19.10;99.90;;;;;;5042887;28;20037;-66
2023/06/03 08:48:48;;;;;;;0.10;0.10;;;19.20;99.90;;;;;;5031059;28;20057;-65
2023/06/03 08:51:15;;;;;;;0.00;0.00;;;19.10;99.90;;;;;;5046428;28;20216;-67
2023/06/03 08:53:49;;;;;;;0.00;0.00;;;19.00;99.90;;;;;;5041578;28;20119;-66
2023/06/03 08:56:19;;;;;;;0.00;0.00;;;18.80;99.90;;;;;;5046352;28;20135;-65
2023/06/03 08:58:54;;;;;;;0.15;0.00;;;18.50;99.90;;;;;;5040695;28;20491;-66
2023/06/03 09:01:26;;;;;;;0.08;0.08;;;18.30;99.90;;;;;;5048540;28;20037;-65
2023/06/03 09:03:53;;;;;;;;;;;18.00;99.90;;;;;;5074508;28;20492;-65
2023/06/03 09:06:20;;;;;;;0.10;0.10;;;17.80;99.90;;;;;;5075381;28;19968;-67
2023/06/03 09:08:49;;;;;;;0.25;0.00;;;17.60;99.90;;;;;;5072900;28;20067;-67
2023/06/03 09:11:16;;;;;;;0.00;0.00;;;17.50;99.90;;;;;;5043932;28;20044;-66
2023/06/03 09:13:42;;;;;;;0.00;0.00;;;17.40;99.90;;;;;;5039451;28;20045;-66
2023/06/03 09:16:09;;;;;;;0.00;0.00;;;17.30;99.90;;;;;;5042539;28;20029;-66
2023/06/03 09:18:35;;;;;;;1.48;0.68;;;17.20;99.90;;;;;;5073247;28;20335;-67
2023/06/03 09:21:02;;;;;;;0.00;0.00;;;17.20;99.90;;;;;;5044045;28;20116;-68
2023/06/03 09:23:30;;;;;;;0.00;0.00;;;17.20;99.80;;;;;;5042169;28;20044;-65
2023/06/03 09:25:55;;;;;;;0.00;0.00;;;17.30;99.60;;;;;;5044281;28;20048;-65
2023/06/03 09:28:21;;;;;;;0.10;0.10;;;17.40;99.90;;;;;;5039466;28;20044;-65
2023/06/03 09:30:47;;;;;;;0.05;0.05;;;17.60;99.90;;;;;;5040906;28;20045;-67
2023/06/03 09:33:13;;;;;;;0.13;0.13;;;17.90;99.90;;;;;;5072353;28;20067;-65
2023/06/03 09:35:38;;;;;;;0.00;0.00;;;18.10;99.10;;;;;;5044281;28;20082;-66
2023/06/03 09:38:05;;;;;;;0.00;0.00;;;18.30;99.90;;;;;;5038396;28;20066;-65
2023/06/03 09:40:32;;;;;;;0.10;0.10;;;18.50;99.90;;;;;;5046698;28;20102;-66
2023/06/03 09:42:58;;;;;;;0.10;0.10;;;18.60;99.90;;;;;;5050802;28;20041;-67
2023/06/03 09:45:32;;;;;;;0.00;0.00;;;18.70;98.60;;;;;;5030292;28;20505;-66
2023/06/03 09:48:00;;;;;;;0.13;0.13;;;18.80;98.20;;;;;;5046116;28;21324;-66
2023/06/03 09:50:30;;;;;;;0.10;0.10;;;18.90;98.50;;;;;;5056599;28;20064;-66
2023/06/03 09:52:57;;;;;;;1.00;0.10;;;19.00;99.90;;;;;;5074474;28;20056;-66
2023/06/03 09:55:29;;;;;;;0.65;0.38;;;19.10;98.40;;;;;;5033411;28;20060;-64
2023/06/03 09:58:09;;;;;;;0.00;0.00;;;19.20;98.40;;;;;;5042012;28;20041;-66
2023/06/03 10:00:47;;;;;;;0.20;0.20;;;19.30;98.20;;;;;;5034538;28;20095;-68
2023/06/03 10:03:12;;;;;;;0.10;0.10;;;19.40;98.50;;;;;;5046765;28;20049;-67
2023/06/03 10:05:38;;;;;;;0.00;0.00;;;19.40;97.80;;;;;;5049369;28;20499;-67
2023/06/03 10:08:04;;;;;;;0.30;0.20;;;19.50;96.70;;;;;;5045426;28;20414;-66
2023/06/03 10:10:31;;;;;;;0.75;0.10;;;19.40;97.40;;;;;;5047213;28;20044;-65
2023/06/03 10:12:57;;;;;;;0.00;0.00;;;19.40;97.50;;;;;;5078162;28;20052;-65
2023/06/03 10:15:37;;;;;;;0.10;0.10;;;19.40;95.80;;;;;;5083109;28;20048;-66
2023/06/03 10:18:04;;;;;;;0.75;0.60;;;19.40;96.60;;;;;;5047903;28;20041;-66
2023/06/03 10:20:36;;;;;;;0.08;0.08;;;19.50;97.60;;;;;;5048238;28;20052;-67
2023/06/03 10:23:03;;;;;;;0.10;0.10;;;19.60;97.00;;;;;;5047128;28;20119;-67
2023/06/03 10:25:38;;;;;;;0.00;0.00;;;19.50;96.40;;;;;;5043037;28;20045;-67
2023/06/03 10:28:04;;;;;;;0.00;0.00;;;19.60;95.60;;;;;;5044310;28;20053;-66
2023/06/03 10:30:30;;;;;;;0.10;0.10;;;19.60;96.60;;;;;;5038622;28;20072;-65
2023/06/03 10:32:58;;;;;;;0.00;0.00;;;19.70;97.10;;;;;;5071489;28;20052;-65
2023/06/03 10:35:26;;;;;;;0.00;0.00;;;19.70;95.80;;;;;;5044342;28;20507;-66
2023/06/03 10:37:53;;;;;;;0.00;0.00;;;19.80;97.00;;;;;;5045299;28;20060;-67
2023/06/03 10:40:18;;;;;;;0.10;0.10;;;19.80;95.80;;;;;;5043046;28;20032;-67
2023/06/03 10:42:45;;;;;;;0.10;0.10;;;19.90;96.80;;;;;;5041619;28;20077;-66
2023/06/03 10:45:11;;;;;;;0.15;0.15;;;20.00;97.50;;;;;;5061911;28;20516;-66
2023/06/03 10:47:41;;;;;;;0.00;0.00;;;20.00;96.80;;;;;;5046183;28;20118;-67
2023/06/03 10:50:09;;;;;;;0.00;0.00;;;20.10;95.80;;;;;;5028494;28;20423;-66
2023/06/03 10:52:45;;;;;;;0.05;0.05;;;20.20;96.40;;;;;;5040451;28;20040;-66
2023/06/03 10:55:30;;;;;;;0.00;0.00;;;20.20;96.30;;;;;;5041451;28;20091;-66
2023/06/03 10:58:18;;;;;;;0.00;0.00;;;20.30;96.40;;;;;;5047016;28;20037;-68
2023/06/03 11:01:01;;;;;;;0.00;0.00;;;20.30;95.30;;;;;;5043124;28;20045;-67
2023/06/03 11:03:30;;;;;;;0.00;0.00;;;20.30;96.30;;;;;;5037698;28;20064;-66
2023/06/03 11:06:32;;;;;;;0.08;0.08;;;20.20;94.50;;;;;;5083463;28;20080;-67
2023/06/03 11:08:59;;;;;;;1.07;0.87;;;20.20;94.70;;;;;;5045326;28;20045;-67
2023/06/03 11:11:59;;;;;;;0.00;0.00;;;20.10;94.20;;;;;;5044207;28;20365;-67
2023/06/03 11:14:24;;;;;;;0.00;0.00;;;20.10;95.70;;;;;;5066705;28;20056;-66
2023/06/03 11:17:09;;;;;;;0.52;0.45;;;20.20;95.90;;;;;;5030357;28;20488;-67
2023/06/03 11:19:45;;;;;;;0.00;0.00;;;20.30;96.60;;;;;;5042895;28;20446;-66
2023/06/03 11:22:29;;;;;;;0.10;0.10;;;20.30;94.50;;;;;;5040582;28;20114;-67
2023/06/03 11:24:59;;;;;;;0.00;0.00;;;20.30;94.20;;;;;;5047900;28;20148;-67
2023/06/03 11:27:26;;;;;;;0.40;0.13;;;20.40;95.50;;;;;;5046137;28;20049;-68
2023/06/03 11:29:59;;;;;;;0.00;0.00;;;20.40;94.30;;;;;;5040493;28;20120;-69
2023/06/03 11:32:34;;;;;;;0.00;0.00;;;20.40;95.00;;;;;;5042969;28;20037;-68
2023/06/03 11:35:00;;;;;;;0.10;0.10;;;20.40;95.10;;;;;;5038476;28;20152;-66
2023/06/03 11:37:41;;;;;;;0.20;0.20;;;20.40;94.00;;;;;;5045974;28;20452;-67
2023/06/03 11:40:18;;;;;;;0.52;0.10;;;20.40;93.90;;;;;;5080158;28;20079;-67
2023/06/03 11:42:47;;;;;;;0.00;0.00;;;20.50;93.80;;;;;;5037839;28;20103;-66
2023/06/03 11:45:18;;;;;;;0.10;0.10;;;20.50;94.40;;;;;;5048585;28;20102;-67
2023/06/03 11:47:53;;;;;;;0.00;0.00;;;20.60;95.10;;;;;;5037373;28;20291;-68
2023/06/03 11:50:20;;;;;;;0.00;0.00;;;20.60;94.50;;;;;;5045747;28;20040;-69
2023/06/03 11:52:45;;;;;;;0.13;0.13;;;20.60;94.40;;;;;;5041487;28;20041;-66
2023/06/03 11:55:21;;;;;;;0.00;0.00;;;20.60;94.80;;;;;;5081050;28;20049;-69
2023/06/03 11:57:46;;;;;;;0.20;0.20;;;20.60;95.20;;;;;;5041535;28;20041;-68
2023/06/03 12:00:13;;;;;;;0.17;0.17;;;20.70;94.70;;;;;;5045011;28;20041;-67
2023/06/03 12:02:46;;;;;;;0.15;0.15;;;20.70;94.80;;;;;;5044660;28;20389;-67
2023/06/03 12:05:12;;;;;;;0.00;0.00;;;20.70;95.10;;;;;;5038583;28;20053;-68
2023/06/03 12:07:38;;;;;;;0.00;0.00;;;20.70;94.60;;;;;;5035790;28;20033;-67
2023/06/03 12:10:04;;;;;;;0.20;0.20;;;20.70;93.80;;;;;;5077603;28;20071;-67
2023/06/03 12:12:30;;;;;;;0.05;0.05;;;20.70;93.70;;;;;;5040456;28;20537;-67
2023/06/03 12:15:07;;;;;;;0.00;0.00;;;20.70;93.70;;;;;;5044730;28;20045;-67
2023/06/03 12:17:33;;;;;;;0.10;0.10;;;20.70;94.20;;;;;;5039272;28;20041;-67
2023/06/03 12:20:04;;;;;;;0.30;0.30;;;20.80;94.10;;;;;;5048367;28;20037;-66
2023/06/03 12:22:29;;;;;;;3.85;3.75;;;20.80;93.20;;;;;;5033563;28;20087;-66
2023/06/03 12:24:55;;;;;;;4.63;4.45;;;20.80;93.60;;;;;;5062022;28;20471;-68
2023/06/03 12:27:26;;;;;;;4.50;4.40;;;20.90;94.30;;;;;;5046507;28;20051;-65
2023/06/03 12:29:56;;;;;;;70.82;11.73;;;20.80;94.50;;;;;;5043757;28;20044;-68
2023/06/03 12:32:23;;;;;;;21.00;19.83;;;20.80;93.50;;;;;;5044352;28;20042;-66
2023/06/03 12:34:50;;;;;;;0.75;0.20;;;20.80;92.90;;;;;;5046481;28;20052;-66
2023/06/03 12:37:27;;;;;;;0.00;0.00;;;20.80;93.30;;;;;;5048452;28;20091;-67
2023/06/03 12:39:53;;;;;;;0.10;0.10;;;20.90;93.20;;;;;;5050667;28;20049;-67
2023/06/03 12:42:32;;;;;;;0.00;0.00;;;20.90;93.90;;;;;;5036071;28;20067;-66
2023/06/03 12:44:58;;;;;;;0.10;0.10;;;20.90;93.00;;;;;;5066841;28;20080;-66
2023/06/03 12:47:24;;;;;;;0.00;0.00;;;20.90;93.30;;;;;;5048321;28;20068;-67
2023/06/03 12:50:09;;;;;;;0.20;0.10;;;21.00;94.80;;;;;;5039370;28;20040;-67
2023/06/03 12:52:38;;;;;;;0.30;0.20;;;21.00;94.10;;;;;;5082423;28;20037;-66
2023/06/03 12:55:07;;;;;;;0.10;0.10;;;21.10;92.70;;;;;;5076722;28;20041;-68